Terminal Aerodrome Forecast
Issued by NWS

Home | Current Version | Previous Version | Graphics & Text | Print | Product List | Glossary On
Versions: 1 2 3 4 5 6 7 8 9 10 11 12 13 14 15 16 17 18 19
000
FTUS43 KBIS 221742
TAFDIK
TAF
KDIK 221742Z 2218/2318 22019G23KT P6SM VCSH BKN060
     FM222100 26021G31KT P6SM VCSH BKN100
     FM230100 26018G26KT P6SM SCT120
     FM230400 27018G28KT P6SM SCT250
     FM231300 30022G31KT P6SM SCT060
     FM231600 31028G40KT P6SM SCT060=

USA.gov is the U.S. government's official web portal to all federal, state and local government web resources and services.